Time;durP1;ratioP1;P1;durP2;ratioP2;P2;SDS_P1;SDS_P2;PMS_P1;PMS_P2;Temp;Humidity;BMP_temperature;BMP_pressure;BME280_temperature;BME280_humidity;BME280_pressure;Samples;Min_cycle;Max_cycle;Signal;HPM_P1;HPM_P2
2021/09/07 00:02:06;;;;;;;18.67;13.37;;;;;;;15.63;100.00;102407.53;2615063;36;20022;-64
2021/09/07 00:04:34;;;;;;;18.98;12.68;;;;;;;15.68;100.00;102404.44;2615630;36;20135;-63
2021/09/07 00:07:03;;;;;;;22.27;13.07;;;;;;;15.71;100.00;102409.63;2615348;36;20134;-63
2021/09/07 00:09:31;;;;;;;17.57;12.43;;;;;;;15.71;100.00;102417.75;2615943;36;20122;-64
2021/09/07 00:11:59;;;;;;;16.90;11.73;;;;;;;15.64;100.00;102408.41;2616309;31;20090;-63
2021/09/07 00:14:27;;;;;;;17.87;13.07;;;;;;;15.68;100.00;102410.75;2615576;36;20154;-64
2021/09/07 00:16:55;;;;;;;20.23;13.82;;;;;;;15.71;100.00;102407.75;2615329;36;20126;-64
2021/09/07 00:19:26;;;;;;;21.38;13.18;;;;;;;15.68;100.00;102401.72;2615992;36;20122;-65
2021/09/07 00:21:55;;;;;;;20.67;12.75;;;;;;;15.69;100.00;102409.72;2614785;36;20137;-66
2021/09/07 00:24:23;;;;;;;21.05;13.48;;;;;;;15.60;100.00;102396.94;2614974;36;20190;-65
2021/09/07 00:26:51;;;;;;;20.00;13.23;;;;;;;15.65;100.00;102397.44;2614295;36;20027;-65
2021/09/07 00:29:20;;;;;;;16.73;12.38;;;;;;;15.66;100.00;102404.56;2615221;36;20042;-66
2021/09/07 00:31:48;;;;;;;17.88;11.90;;;;;;;15.63;100.00;102395.84;2615679;36;20073;-65
2021/09/07 00:34:16;;;;;;;17.92;12.65;;;;;;;15.62;100.00;102399.53;2616640;31;20129;-65
2021/09/07 00:36:48;;;;;;;21.00;12.07;;;;;;;15.49;100.00;102392.44;2615939;36;20454;-65
2021/09/07 00:39:16;;;;;;;18.10;12.95;;;;;;;15.22;100.00;102390.22;2615716;36;20113;-63
2021/09/07 00:41:45;;;;;;;19.58;13.45;;;;;;;15.02;100.00;102397.31;2615367;36;20568;-64
2021/09/07 00:44:18;;;;;;;20.33;12.98;;;;;;;14.93;100.00;102393.53;2615554;36;20963;-64
2021/09/07 00:46:51;;;;;;;21.20;13.30;;;;;;;14.96;100.00;102398.69;2614942;36;20038;-64
2021/09/07 00:49:20;;;;;;;20.85;14.18;;;;;;;14.94;100.00;102395.22;2615150;36;20023;-62
2021/09/07 00:51:52;;;;;;;17.88;12.90;;;;;;;14.92;100.00;102397.22;2614579;36;20027;-63
2021/09/07 00:54:22;;;;;;;20.08;13.50;;;;;;;14.96;100.00;102403.22;2615242;36;20130;-64
2021/09/07 00:56:50;;;;;;;17.40;11.98;;;;;;;14.93;100.00;102406.19;2612968;36;20046;-62
2021/09/07 00:59:22;;;;;;;20.90;13.32;;;;;;;14.81;100.00;102400.81;2614786;36;20026;-63
2021/09/07 01:01:51;;;;;;;20.90;13.93;;;;;;;14.75;100.00;102395.88;2616117;36;20355;-63
2021/09/07 01:04:19;;;;;;;21.10;13.80;;;;;;;14.79;100.00;102393.78;2615881;31;20118;-64
2021/09/07 01:06:50;;;;;;;19.45;13.05;;;;;;;14.80;100.00;102388.25;2616528;36;20121;-63
2021/09/07 01:09:19;;;;;;;22.98;14.20;;;;;;;14.80;100.00;102381.97;2616613;36;20122;-63
2021/09/07 01:11:47;;;;;;;19.33;13.60;;;;;;;14.70;100.00;102388.13;2615306;36;20070;-63
2021/09/07 01:14:18;;;;;;;20.02;12.98;;;;;;;14.78;100.00;102383.94;2615522;31;20162;-63
2021/09/07 01:16:46;;;;;;;22.65;14.25;;;;;;;14.79;100.00;102380.25;2616667;36;20130;-64
2021/09/07 01:19:14;;;;;;;19.87;12.73;;;;;;;14.77;100.00;102379.53;2617679;31;20516;-63
2021/09/07 01:21:43;;;;;;;18.90;13.23;;;;;;;14.82;100.00;102380.84;2616921;36;20543;-64
2021/09/07 01:24:13;;;;;;;19.05;13.45;;;;;;;14.77;100.00;102384.94;2616565;31;20535;-65
2021/09/07 01:26:44;;;;;;;20.02;13.38;;;;;;;14.79;100.00;102375.66;2615502;36;20067;-65
2021/09/07 01:29:12;;;;;;;21.92;12.60;;;;;;;14.85;100.00;102380.59;2616825;36;20118;-63
2021/09/07 01:31:41;;;;;;;23.05;14.23;;;;;;;14.76;100.00;102381.34;2616787;36;20073;-63
2021/09/07 01:34:09;;;;;;;22.42;13.93;;;;;;;14.71;100.00;102378.19;2616417;31;20634;-63
2021/09/07 01:36:37;;;;;;;19.05;13.30;;;;;;;14.79;100.00;102388.38;2618055;36;20451;-64
2021/09/07 01:39:05;;;;;;;18.10;13.15;;;;;;;14.80;100.00;102387.41;2614562;54;20170;-62
2021/09/07 01:41:34;;;;;;;21.73;13.43;;;;;;;14.72;100.00;102379.88;2616247;36;20034;-63
2021/09/07 01:44:04;;;;;;;17.60;12.48;;;;;;;14.67;100.00;102382.97;2616239;36;20104;-64
2021/09/07 01:46:33;;;;;;;20.42;14.27;;;;;;;14.71;100.00;102376.31;2616552;36;20158;-63
2021/09/07 01:49:01;;;;;;;19.57;12.90;;;;;;;14.75;100.00;102384.19;2616721;36;20081;-63
2021/09/07 01:51:29;;;;;;;18.42;13.68;;;;;;;14.68;100.00;102382.00;2617056;36;20367;-63
2021/09/07 01:53:57;;;;;;;18.67;13.63;;;;;;;14.67;100.00;102385.69;2616857;36;20049;-63
2021/09/07 01:56:26;;;;;;;22.23;13.05;;;;;;;14.57;100.00;102387.38;2615903;36;20027;-63
2021/09/07 01:58:54;;;;;;;16.92;12.25;;;;;;;14.60;100.00;102389.00;2616376;36;20575;-63
2021/09/07 02:01:25;;;;;;;18.13;12.50;;;;;;;14.62;100.00;102390.63;2616771;36;20500;-62
2021/09/07 02:03:53;;;;;;;19.60;12.52;;;;;;;14.60;100.00;102384.41;2616719;36;20126;-63
2021/09/07 02:06:21;;;;;;;21.90;11.73;;;;;;;14.59;100.00;102387.25;2616707;32;20113;-63
2021/09/07 02:08:49;;;;;;;17.63;12.75;;;;;;;14.56;100.00;102385.69;2615880;36;20146;-63
2021/09/07 02:11:18;;;;;;;17.23;11.82;;;;;;;14.54;100.00;102388.47;2616699;36;20035;-63
2021/09/07 02:13:46;;;;;;;18.50;12.60;;;;;;;14.50;100.00;102381.63;2616333;36;20034;-64
2021/09/07 02:16:14;;;;;;;18.52;11.57;;;;;;;14.45;100.00;102381.13;2616417;36;20211;-63
2021/09/07 02:18:45;;;;;;;15.63;11.00;;;;;;;14.42;100.00;102385.94;2616128;36;20142;-64
2021/09/07 02:21:13;;;;;;;16.08;10.27;;;;;;;14.36;100.00;102382.72;2616773;36;20587;-63
2021/09/07 02:23:41;;;;;;;19.42;11.73;;;;;;;14.28;100.00;102371.66;2615639;36;20158;-63
2021/09/07 02:26:10;;;;;;;20.13;11.13;;;;;;;14.24;100.00;102372.88;2616516;36;20631;-63
2021/09/07 02:28:38;;;;;;;17.10;11.75;;;;;;;14.20;100.00;102372.25;2615583;36;20122;-65
2021/09/07 02:31:07;;;;;;;16.75;11.43;;;;;;;14.19;100.00;102375.06;2615407;36;20080;-63
2021/09/07 02:33:35;;;;;;;15.15;10.93;;;;;;;14.09;100.00;102377.69;2616829;36;20027;-63
2021/09/07 02:36:06;;;;;;;17.98;11.45;;;;;;;14.03;100.00;102383.59;2616884;31;20511;-64
2021/09/07 02:38:35;;;;;;;19.02;11.75;;;;;;;13.94;100.00;102384.28;2616332;36;20543;-62
2021/09/07 02:41:03;;;;;;;15.20;10.57;;;;;;;13.96;100.00;102382.34;2616014;36;20065;-63
2021/09/07 02:43:31;;;;;;;15.75;11.57;;;;;;;13.94;100.00;102379.75;2616526;36;20129;-63
2021/09/07 02:46:00;;;;;;;17.13;10.87;;;;;;;13.95;100.00;102380.59;2614919;36;20063;-62
2021/09/07 02:48:28;;;;;;;15.75;9.95;;;;;;;13.88;100.00;102377.50;2615299;36;20118;-63
2021/09/07 02:50:56;;;;;;;14.93;10.57;;;;;;;13.87;100.00;102383.03;2616602;36;20085;-63
2021/09/07 02:53:27;;;;;;;15.75;10.32;;;;;;;13.81;100.00;102379.84;2616939;36;20026;-62
2021/09/07 02:55:55;;;;;;;16.50;11.23;;;;;;;13.80;100.00;102382.69;2616346;36;20068;-63
2021/09/07 02:58:23;;;;;;;17.38;11.27;;;;;;;13.75;100.00;102385.75;2616684;36;20130;-64
2021/09/07 03:00:52;;;;;;;17.48;11.63;;;;;;;13.69;100.00;102374.53;2615366;36;20126;-63
2021/09/07 03:03:22;;;;;;;19.77;13.00;;;;;;;13.60;100.00;102371.56;2616677;36;20038;-63
2021/09/07 03:05:50;;;;;;;20.33;12.93;;;;;;;13.56;100.00;102369.19;2616390;36;20626;-63
2021/09/07 03:08:18;;;;;;;19.45;13.73;;;;;;;13.58;100.00;102368.09;2616314;36;20042;-62
2021/09/07 03:10:49;;;;;;;21.92;13.10;;;;;;;13.59;100.00;102369.84;2616942;31;20554;-63
2021/09/07 03:13:17;;;;;;;22.08;14.27;;;;;;;13.58;100.00;102368.09;2616541;36;20038;-63
2021/09/07 03:15:46;;;;;;;21.95;14.18;;;;;;;13.54;100.00;102361.19;2615967;36;20093;-62
2021/09/07 03:18:15;;;;;;;18.27;13.10;;;;;;;13.53;100.00;102373.03;2616133;36;20062;-63
2021/09/07 03:20:44;;;;;;;21.02;12.02;;;;;;;13.52;100.00;102365.88;2616594;36;20037;-63
2021/09/07 03:23:12;;;;;;;17.67;11.17;;;;;;;13.48;100.00;102361.69;2616036;36;20500;-62
2021/09/07 03:25:41;;;;;;;17.27;11.65;;;;;;;13.45;100.00;102364.63;2616659;36;20338;-63
2021/09/07 03:30:41;;;;;;;16.38;12.07;;;;;;;13.37;100.00;102364.34;2615441;36;20411;-63
2021/09/07 03:33:09;;;;;;;15.25;10.40;;;;;;;13.30;100.00;102369.34;2616269;31;20026;-63
2021/09/07 03:35:37;;;;;;;18.00;12.10;;;;;;;13.28;100.00;102368.56;2616356;36;20118;-62
2021/09/07 03:38:06;;;;;;;16.33;11.07;;;;;;;13.25;100.00;102369.69;2615502;36;20114;-64
2021/09/07 03:40:34;;;;;;;18.98;11.70;;;;;;;13.24;100.00;102365.25;2616301;36;20126;-64
2021/09/07 03:43:02;;;;;;;16.48;11.52;;;;;;;13.22;100.00;102371.75;2616162;36;20046;-62
2021/09/07 03:45:30;;;;;;;18.13;11.65;;;;;;;13.16;100.00;102367.66;2616698;36;20240;-64
2021/09/07 03:48:01;;;;;;;15.90;10.98;;;;;;;13.16;100.00;102370.38;2616748;36;20562;-62
2021/09/07 03:50:29;;;;;;;15.80;10.88;;;;;;;13.18;100.00;102368.44;2617335;31;20488;-64
2021/09/07 03:52:57;;;;;;;19.70;10.85;;;;;;;13.17;100.00;102369.41;2616174;36;20085;-63
2021/09/07 03:55:26;;;;;;;17.60;11.35;;;;;;;13.17;100.00;102372.09;2615319;36;20076;-63
2021/09/07 03:57:54;;;;;;;18.88;11.50;;;;;;;13.13;100.00;102373.31;2615836;36;20042;-62
2021/09/07 04:00:22;;;;;;;14.88;10.07;;;;;;;13.17;100.00;102376.66;2615267;36;20204;-62
2021/09/07 04:02:50;;;;;;;16.37;10.67;;;;;;;13.19;100.00;102377.41;2615943;36;20646;-63
2021/09/07 04:05:21;;;;;;;14.10;9.65;;;;;;;13.11;100.00;102370.72;2617057;31;20515;-64
2021/09/07 04:07:49;;;;;;;19.58;11.35;;;;;;;13.09;100.00;102361.03;2616425;36;20054;-63
2021/09/07 04:10:18;;;;;;;16.90;11.60;;;;;;;13.05;100.00;102359.53;2615867;36;20157;-63
2021/09/07 04:12:46;;;;;;;19.25;12.98;;;;;;;13.00;100.00;102375.22;2616199;36;20121;-63
2021/09/07 04:15:14;;;;;;;19.33;12.02;;;;;;;12.97;100.00;102366.38;2615862;36;20126;-63
2021/09/07 04:17:42;;;;;;;18.65;12.75;;;;;;;12.97;100.00;102370.91;2615111;36;20153;-63
2021/09/07 04:20:12;;;;;;;18.20;11.05;;;;;;;12.91;100.00;102372.25;2616839;31;20669;-63
2021/09/07 04:22:43;;;;;;;17.23;11.68;;;;;;;12.87;100.00;102368.03;2616535;36;20447;-63
2021/09/07 04:25:12;;;;;;;14.07;11.10;;;;;;;12.87;100.00;102370.72;2616042;36;20073;-63
2021/09/07 04:27:40;;;;;;;19.40;11.93;;;;;;;12.92;100.00;102373.09;2616196;36;20092;-64
2021/09/07 04:30:09;;;;;;;16.13;11.30;;;;;;;12.91;100.00;102369.53;2615396;36;20097;-64
2021/09/07 04:32:38;;;;;;;18.25;11.25;;;;;;;12.89;100.00;102366.06;2616168;36;20114;-63
2021/09/07 04:35:08;;;;;;;17.00;11.50;;;;;;;12.92;100.00;102371.25;2616118;36;20053;-63
2021/09/07 04:37:36;;;;;;;17.02;10.57;;;;;;;12.87;100.00;102368.03;2616822;31;20031;-63
2021/09/07 04:40:08;;;;;;;21.70;12.18;;;;;;;12.80;100.00;102373.00;2616070;36;20057;-65
2021/09/07 04:42:37;;;;;;;16.63;11.60;;;;;;;12.82;100.00;102370.19;2615926;36;20038;-63
2021/09/07 04:45:06;;;;;;;18.75;12.30;;;;;;;12.83;100.00;102381.88;2616064;36;20039;-63
2021/09/07 04:47:34;;;;;;;18.33;12.27;;;;;;;12.82;100.00;102374.75;2616528;36;20034;-63
2021/09/07 04:50:02;;;;;;;17.80;11.98;;;;;;;12.80;100.00;102373.00;2615597;36;20054;-63
2021/09/07 04:52:30;;;;;;;18.07;12.63;;;;;;;12.79;100.00;102370.44;2614674;36;20065;-63
2021/09/07 04:54:59;;;;;;;18.25;12.68;;;;;;;12.77;100.00;102373.25;2616014;36;20415;-63
2021/09/07 04:57:29;;;;;;;17.92;12.43;;;;;;;12.74;100.00;102367.22;2616268;36;20209;-63
2021/09/07 04:59:58;;;;;;;20.15;12.13;;;;;;;12.75;100.00;102371.63;2615772;36;20031;-63
2021/09/07 05:02:26;;;;;;;18.40;12.13;;;;;;;12.76;100.00;102363.44;2615733;36;20033;-63
2021/09/07 05:04:54;;;;;;;18.13;12.32;;;;;;;12.76;100.00;102376.06;2616070;36;20076;-63
2021/09/07 05:07:23;;;;;;;18.70;11.35;;;;;;;12.75;100.00;102371.63;2616197;31;20118;-63
2021/09/07 05:09:51;;;;;;;17.73;12.10;;;;;;;12.78;100.00;102382.22;2615814;36;20042;-64
2021/09/07 05:12:19;;;;;;;18.55;11.60;;;;;;;12.78;100.00;102385.78;2615923;36;20118;-65
2021/09/07 05:14:50;;;;;;;18.20;12.10;;;;;;;12.78;100.00;102385.78;2615732;36;20153;-63
2021/09/07 05:17:18;;;;;;;19.77;11.23;;;;;;;12.81;100.00;102384.72;2615575;31;20122;-63
2021/09/07 05:19:46;;;;;;;16.48;11.18;;;;;;;12.83;100.00;102381.88;2614813;31;20182;-63
2021/09/07 05:22:14;;;;;;;16.92;11.57;;;;;;;12.88;100.00;102387.78;2616024;36;20129;-63
2021/09/07 05:24:43;;;;;;;19.57;11.10;;;;;;;12.90;100.00;102388.56;2615905;36;20154;-65
2021/09/07 05:27:11;;;;;;;17.40;10.85;;;;;;;12.89;100.00;102393.09;2616515;36;20518;-65
2021/09/07 05:29:39;;;;;;;17.25;11.25;;;;;;;12.97;100.00;102385.28;2614823;36;20093;-63
2021/09/07 05:32:10;;;;;;;17.40;10.90;;;;;;;13.00;100.00;102388.72;2615031;36;20118;-63
2021/09/07 05:34:39;;;;;;;17.00;10.65;;;;;;;13.02;100.00;102387.63;2615843;31;20604;-63
2021/09/07 05:37:08;;;;;;;16.58;11.75;;;;;;;13.08;100.00;102387.19;2616922;31;20495;-63
2021/09/07 05:39:36;;;;;;;17.47;11.77;;;;;;;13.16;100.00;102394.69;2616022;36;20034;-63
2021/09/07 05:42:04;;;;;;;19.52;12.93;;;;;;;13.26;100.00;102395.72;2615513;36;20852;-63
2021/09/07 05:44:33;;;;;;;21.03;12.27;;;;;;;13.39;100.00;102397.56;2616226;36;20034;-63
2021/09/07 05:47:01;;;;;;;19.20;11.90;;;;;;;13.50;100.00;102394.91;2616048;31;20624;-63
2021/09/07 05:49:32;;;;;;;18.80;12.70;;;;;;;13.61;100.00;102399.47;2613738;36;20057;-65
2021/09/07 05:52:00;;;;;;;20.23;12.75;;;;;;;13.75;100.00;102396.56;2614585;36;20038;-63
2021/09/07 05:54:29;;;;;;;21.25;13.05;;;;;;;13.92;100.00;102397.09;2616777;36;20137;-64
2021/09/07 05:56:58;;;;;;;20.23;12.67;;;;;;;14.05;100.00;102397.00;2615236;36;20109;-63
2021/09/07 05:59:26;;;;;;;21.40;12.60;;;;;;;14.10;100.00;102394.78;2616220;36;20026;-65
2021/09/07 06:01:55;;;;;;;19.67;12.50;;;;;;;14.13;100.00;102398.13;2615342;36;20050;-63
2021/09/07 06:04:23;;;;;;;19.88;11.55;;;;;;;14.28;100.00;102404.16;2615859;36;20110;-64
2021/09/07 06:06:54;;;;;;;19.88;11.95;;;;;;;14.39;100.00;102400.56;2615840;36;20122;-63
2021/09/07 06:09:22;;;;;;;17.92;12.02;;;;;;;14.50;100.00;102407.81;2612881;36;20563;-63
2021/09/07 06:11:50;;;;;;;19.33;12.35;;;;;;;14.63;100.00;102392.31;2615399;36;20125;-63
2021/09/07 06:14:18;;;;;;;17.55;12.10;;;;;;;14.80;100.00;102392.81;2611906;36;20121;-63
2021/09/07 06:16:46;;;;;;;18.23;11.75;;;;;;;14.88;100.00;102393.03;2612928;36;20035;-63
2021/09/07 06:19:15;;;;;;;18.70;12.23;;;;;;;15.05;100.00;102397.06;2608232;36;21134;-63
2021/09/07 06:21:43;;;;;;;19.83;11.57;;;;;;;15.23;100.00;102400.09;2613549;36;20170;-63
2021/09/07 06:24:14;;;;;;;20.73;12.48;;;;;;;15.35;100.00;102392.75;2615476;36;20042;-64
2021/09/07 06:26:42;;;;;;;18.10;11.55;;;;;;;15.58;100.00;102399.78;2616016;36;20176;-63
2021/09/07 06:29:10;;;;;;;16.63;11.80;;;;;;;15.86;100.00;102397.44;2616482;36;20050;-64
2021/09/07 06:31:38;;;;;;;18.40;11.27;;;;;;;16.02;100.00;102399.69;2615557;36;20122;-63
2021/09/07 06:34:07;;;;;;;16.98;12.05;;;;;;;16.09;100.00;102397.28;2616114;36;20137;-63
2021/09/07 06:36:35;;;;;;;19.08;11.70;;;;;;;16.27;100.00;102395.69;2615809;36;20073;-64
2021/09/07 06:39:03;;;;;;;16.95;11.95;;;;;;;16.46;100.00;102386.75;2615026;36;20126;-64
2021/09/07 06:41:34;;;;;;;18.23;11.40;;;;;;;16.67;100.00;102383.09;2615287;36;20559;-65
2021/09/07 06:44:02;;;;;;;17.20;11.85;;;;;;;16.72;100.00;102375.34;2615071;36;20035;-63
2021/09/07 06:46:30;;;;;;;19.50;12.50;;;;;;;16.62;100.00;102377.19;2614889;36;20095;-63
2021/09/07 06:48:59;;;;;;;19.63;12.98;;;;;;;16.70;100.00;102377.38;2614127;36;20126;-63
2021/09/07 06:51:27;;;;;;;16.92;11.85;;;;;;;16.79;100.00;102373.81;2613759;36;20519;-64
2021/09/07 06:53:55;;;;;;;21.47;12.27;;;;;;;16.91;100.00;102379.16;2614913;36;20122;-63
2021/09/07 06:56:23;;;;;;;19.00;12.43;;;;;;;16.93;100.00;102377.16;2613541;36;20134;-64
2021/09/07 06:58:54;;;;;;;19.67;11.60;;;;;;;17.09;100.00;102371.16;2612151;36;20126;-64
2021/09/07 07:01:22;;;;;;;15.50;11.18;;;;;;;17.20;100.00;102370.19;2616228;31;20746;-67
2021/09/07 07:03:50;;;;;;;16.73;10.67;;;;;;;17.42;100.00;102364.44;2615388;36;20034;-65
2021/09/07 07:06:19;;;;;;;15.03;11.80;;;;;;;17.57;100.00;102374.88;2614342;36;20042;-65
2021/09/07 07:08:47;;;;;;;19.07;12.17;;;;;;;17.69;100.00;102376.44;2613552;36;20101;-64
2021/09/07 07:11:15;;;;;;;19.13;12.13;;;;;;;17.78;100.00;102371.97;2613202;36;20390;-65
2021/09/07 07:13:43;;;;;;;18.63;11.70;;;;;;;17.98;100.00;102376.41;2615790;36;20050;-65
2021/09/07 07:16:14;;;;;;;19.60;11.03;;;;;;;18.10;100.00;102379.81;2615875;36;20911;-65
2021/09/07 07:18:42;;;;;;;18.88;11.52;;;;;;;18.35;100.00;102374.69;2616070;31;20628;-65
2021/09/07 07:21:10;;;;;;;19.20;12.52;;;;;;;18.24;100.00;102373.03;2616079;36;20030;-65
2021/09/07 07:23:39;;;;;;;18.07;11.43;;;;;;;18.30;100.00;102371.53;2616574;31;20042;-65
2021/09/07 07:26:07;;;;;;;18.13;11.23;;;;;;;18.49;100.00;102374.19;2614641;31;20511;-65
2021/09/07 07:28:35;;;;;;;14.20;11.02;;;;;;;18.59;100.00;102376.00;2611207;36;20125;-67
2021/09/07 07:31:03;;;;;;;14.10;10.80;;;;;;;18.80;100.00;102371.16;2614277;36;20126;-66
2021/09/07 07:33:34;;;;;;;17.90;10.37;;;;;;;18.82;100.00;102387.38;2614736;36;20387;-64
2021/09/07 07:36:02;;;;;;;17.85;11.60;;;;;;;18.62;100.00;102378.44;2616344;36;20034;-66
2021/09/07 07:38:30;;;;;;;16.60;11.13;;;;;;;18.48;100.00;102377.94;2614732;36;20118;-66
2021/09/07 07:41:01;;;;;;;17.90;10.73;;;;;;;18.89;100.00;102374.84;2615892;36;20335;-65
2021/09/07 07:43:29;;;;;;;16.13;10.98;;;;;;;18.80;100.00;102392.09;2616246;36;20030;-65
2021/09/07 07:45:58;;;;;;;15.02;10.18;;;;;;;18.99;100.00;102385.69;2615790;36;20092;-66
2021/09/07 07:48:26;;;;;;;18.35;11.48;;;;;;;19.25;100.00;102378.44;2616241;36;20530;-65
2021/09/07 07:50:57;;;;;;;16.27;10.32;;;;;;;19.37;100.00;102384.50;2616037;36;20125;-65
2021/09/07 07:53:25;;;;;;;20.38;11.27;;;;;;;19.78;100.00;102382.13;2616345;36;20069;-66
2021/09/07 07:55:53;;;;;;;14.70;11.13;;;;;;;19.91;100.00;102387.19;2615066;36;20038;-65
2021/09/07 07:58:21;;;;;;;15.98;9.70;;;;;;;19.88;100.00;102387.50;2616212;36;20031;-64
2021/09/07 08:00:49;;;;;;;13.73;10.07;;;;;;;19.78;100.00;102386.75;2615866;36;20078;-66
2021/09/07 08:03:18;;;;;;;15.90;10.60;;;;;;;19.52;100.00;102387.56;2616062;36;20290;-65
2021/09/07 08:05:46;;;;;;;17.20;11.63;;;;;;;19.48;100.00;102391.63;2616557;31;20154;-65
2021/09/07 08:08:17;;;;;;;16.55;10.75;;;;;;;19.67;100.00;102395.16;2616449;36;20042;-65
2021/09/07 08:10:45;;;;;;;15.68;11.02;;;;;;;19.59;100.00;102394.09;2615509;36;20679;-65
2021/09/07 08:13:13;;;;;;;12.85;10.20;;;;;;;19.90;100.00;102390.94;2615879;36;20085;-65
2021/09/07 08:15:42;;;;;;;15.73;10.05;;;;;;;20.04;100.00;102396.84;2616023;36;20118;-65
2021/09/07 08:18:10;;;;;;;15.77;10.98;;;;;;;20.03;100.00;102392.41;2615139;36;20151;-65
2021/09/07 08:20:38;;;;;;;13.52;10.13;;;;;;;20.27;100.00;102400.75;2617070;31;20519;-65
2021/09/07 08:23:07;;;;;;;18.42;10.60;;;;;;;20.38;100.00;102390.53;2615600;36;20057;-65
2021/09/07 08:25:37;;;;;;;15.30;10.07;;;;;;;20.38;100.00;102394.13;2616419;36;20439;-66
2021/09/07 08:28:06;;;;;;;15.10;9.82;;;;;;;20.47;100.00;102392.28;2615630;36;20038;-63
2021/09/07 08:30:34;;;;;;;15.95;9.45;;;;;;;20.86;100.00;102393.63;2613276;36;20141;-65
2021/09/07 08:33:03;;;;;;;15.52;10.23;;;;;;;20.68;100.00;102396.50;2616337;31;20533;-66
2021/09/07 08:35:31;;;;;;;13.05;9.27;;;;;;;20.75;100.00;102392.06;2616148;36;20030;-65
2021/09/07 08:37:59;;;;;;;12.95;8.60;;;;;;;20.71;100.00;102391.53;2615523;36;20163;-66
2021/09/07 08:40:27;;;;;;;14.05;9.23;;;;;;;21.08;100.00;102389.41;2617008;31;20459;-65
2021/09/07 08:42:59;;;;;;;14.52;9.85;;;;;;;20.90;100.00;102400.50;2616170;36;20126;-66
2021/09/07 08:45:28;;;;;;;12.13;8.68;;;;;;;20.86;100.00;102397.22;2616022;36;20198;-66
2021/09/07 08:47:58;;;;;;;15.80;9.27;;;;;;;20.81;100.00;102399.63;2615912;36;20146;-65
2021/09/07 08:50:29;;;;;;;13.00;9.18;;;;;;;20.78;100.00;102399.94;2616004;36;20574;-64
2021/09/07 08:52:58;;;;;;;14.10;9.45;;;;;;;20.82;100.00;102404.06;2615235;36;20031;-66
2021/09/07 08:55:27;;;;;;;15.68;9.27;;;;;;;20.94;100.00;102405.47;2615794;36;20563;-66
2021/09/07 08:57:55;;;;;;;13.52;10.75;;;;;;;20.72;100.00;102397.88;2616176;36;20057;-66
2021/09/07 09:00:33;;;;;;;17.25;10.60;;;;;;;20.85;100.00;102403.75;2616093;36;20050;-65
2021/09/07 09:03:11;;;;;;;14.27;9.18;;;;;;;21.14;100.00;102399.69;2615868;36;20022;-66
2021/09/07 09:05:43;;;;;;;14.65;9.18;;;;;;;21.34;100.00;102401.06;2617187;31;20077;-66
2021/09/07 09:10:40;;;;;;;15.27;9.45;;;;;;;21.69;100.00;102393.56;2615041;36;20561;-66
2021/09/07 09:13:11;;;;;;;14.88;9.25;;;;;;;21.87;100.00;102393.38;2616223;36;20113;-65
2021/09/07 09:15:42;;;;;;;14.88;9.52;;;;;;;21.67;100.00;102395.66;2616068;36;20161;-66
2021/09/07 09:18:12;;;;;;;14.73;9.60;;;;;;;21.96;100.00;102399.72;2614938;36;20145;-66
2021/09/07 09:20:42;;;;;;;17.67;9.77;;;;;;;22.01;100.00;102390.94;2616060;36;20158;-65
2021/09/07 09:23:12;;;;;;;14.05;9.73;;;;;;;21.85;100.00;102402.84;2616208;36;20114;-65
2021/09/07 09:25:42;;;;;;;15.25;9.85;;;;;;;21.73;100.00;102404.19;2616443;36;20113;-66
2021/09/07 09:28:25;;;;;;;14.75;9.85;;;;;;;22.15;100.00;102408.59;2616995;36;20152;-66
2021/09/07 09:30:58;;;;;;;16.13;9.57;;;;;;;22.46;100.00;102402.34;2616624;36;20061;-66
2021/09/07 09:33:29;;;;;;;16.35;9.25;;;;;;;22.45;100.00;102406.13;2609163;36;20061;-66
2021/09/07 09:35:59;;;;;;;15.13;9.80;;;;;;;22.56;100.00;102397.50;2615950;36;20126;-66
2021/09/07 09:38:29;;;;;;;12.50;9.30;;;;;;;22.43;100.00;102408.19;2616755;36;21038;-66
2021/09/07 09:41:00;;;;;;;12.65;9.30;;;;;;;22.57;100.00;102399.22;2616206;36;20110;-65
2021/09/07 09:43:37;;;;;;;13.75;9.95;;;;;;;22.67;100.00;102396.25;2608013;31;20047;-67
2021/09/07 09:46:22;;;;;;;14.35;8.95;;;;;;;22.86;100.00;102397.69;2615073;36;20069;-66
2021/09/07 09:48:51;;;;;;;15.48;9.85;;;;;;;22.96;100.00;102406.56;2616385;36;20038;-66
2021/09/07 09:51:23;;;;;;;12.48;9.23;;;;;;;23.09;100.00;102390.34;2616095;31;20037;-67
2021/09/07 09:53:53;;;;;;;12.35;8.43;;;;;;;23.43;100.00;102397.31;2615425;36;20026;-66
2021/09/07 09:56:22;;;;;;;12.65;9.02;;;;;;;23.65;100.00;102393.91;2615330;36;20590;-66
2021/09/07 09:58:52;;;;;;;14.07;9.23;;;;;;;23.63;100.00;102391.34;2615213;36;20177;-66
2021/09/07 10:01:23;;;;;;;13.52;8.93;;;;;;;23.20;100.00;102382.75;2614411;36;20201;-66
2021/09/07 10:03:52;;;;;;;12.10;9.13;;;;;;;23.20;100.00;102382.75;2615538;36;20105;-66
2021/09/07 10:06:21;;;;;;;13.45;9.05;;;;;;;23.30;100.00;102380.59;2615872;36;20038;-66
2021/09/07 10:08:50;;;;;;;10.50;8.48;;;;;;;23.72;100.00;102379.22;2616266;36;20034;-65
2021/09/07 10:11:19;;;;;;;;;;;;;;;23.72;100.00;102372.88;2616457;36;20072;-65
2021/09/07 10:13:52;;;;;;;13.20;9.20;;;;;;;23.68;100.00;102377.88;2616361;36;20018;-67
2021/09/07 10:16:39;;;;;;;12.98;9.18;;;;;;;23.95;100.00;102375.56;2614785;36;20030;-67
2021/09/07 10:19:14;;;;;;;14.18;9.90;;;;;;;23.78;100.00;102378.47;2615460;36;20034;-66
2021/09/07 10:24:53;;;;;;;14.23;9.90;;;;;;;23.94;100.00;102366.47;2615903;36;20034;-66
2021/09/07 10:27:22;;;;;;;14.10;9.73;;;;;;;24.05;100.00;102367.88;2615945;36;20047;-65
2021/09/07 10:29:50;;;;;;;18.52;12.48;;;;;;;24.09;100.00;102363.72;2616325;31;20527;-67
2021/09/07 10:32:36;;;;;;;11.75;9.57;;;;;;;24.24;100.00;102357.38;2617063;31;20510;-66
2021/09/07 10:35:16;;;;;;;13.10;9.25;;;;;;;24.37;100.00;102353.94;2613420;36;20039;-67
2021/09/07 10:38:15;;;;;;;13.43;9.75;;;;;;;24.48;100.00;102346.06;2615193;36;20088;-66
2021/09/07 10:40:46;;;;;;;17.42;10.60;;;;;;;25.00;100.00;102337.75;2614531;36;20046;-66
2021/09/07 10:43:14;;;;;;;13.88;9.38;;;;;;;24.90;100.00;102343.59;2614076;36;20023;-67
2021/09/07 10:45:43;;;;;;;11.90;9.10;;;;;;;25.11;100.00;102334.47;2615177;36;20564;-67
2021/09/07 10:48:29;;;;;;;;;;;;;;;25.19;100.00;102339.84;2614957;31;20689;-67
2021/09/07 10:51:05;;;;;;;13.55;9.52;;;;;;;25.41;100.00;102339.00;2615654;36;20076;-67
2021/09/07 10:53:34;;;;;;;12.38;9.07;;;;;;;25.55;100.00;102342.72;2616514;31;20042;-66
2021/09/07 10:56:17;;;;;;;;;;;;;;;25.19;100.00;102330.72;2613276;36;20201;-67
2021/09/07 10:58:45;;;;;;;13.57;9.00;;;;;;;25.22;100.00;102337.75;2616697;36;20342;-67
2021/09/07 11:01:33;;;;;;;13.38;8.50;;;;;;;25.27;100.00;102338.00;2611120;36;20126;-67
2021/09/07 11:04:32;;;;;;;13.13;9.27;;;;;;;25.68;100.00;102334.56;2610656;36;20026;-67
2021/09/07 11:07:39;;;;;;;12.35;9.27;;;;;;;25.73;100.00;102331.19;2616508;31;20549;-67
2021/09/07 11:10:28;;;;;;;15.15;10.05;;;;;;;26.01;100.00;102331.19;2615258;36;20049;-67
2021/09/07 11:12:57;;;;;;;14.32;9.85;;;;;;;26.32;100.00;102332.59;2616387;36;20030;-67
2021/09/07 11:15:27;;;;;;;13.27;9.65;;;;;;;26.03;100.00;102326.28;2616145;36;20034;-67
2021/09/07 11:17:57;;;;;;;14.10;9.57;;;;;;;25.96;100.00;102320.72;2616254;36;20630;-68
2021/09/07 11:20:30;;;;;;;15.57;10.13;;;;;;;26.41;100.00;102320.31;2618551;31;20518;-67
2021/09/07 11:22:59;;;;;;;15.57;11.18;;;;;;;25.96;100.00;102317.13;2616156;31;20034;-67
2021/09/07 11:25:30;;;;;;;14.52;10.23;;;;;;;26.27;100.00;102316.66;2615323;36;20096;-68